Time;durP1;ratioP1;P1;durP2;ratioP2;P2;SDS_P1;SDS_P2;PMS_P1;PMS_P2;Temp;Humidity;BMP_temperature;BMP_pressure;BME280_temperature;BME280_humidity;BME280_pressure;Samples;Min_cycle;Max_cycle;Signal;HPM_P1;HPM_P2
2023/05/19 00:01:25;;;;;;;10.68;5.75;;;;;;;;;;10198268;28;20096;-72
2023/05/19 00:06:26;;;;;;;9.27;6.05;;;;;;;;;;10251892;28;20499;-72
2023/05/19 00:11:23;;;;;;;10.70;5.82;;;;;;;;;;10252313;28;20531;-73
2023/05/19 00:16:19;;;;;;;9.63;5.50;;;;;;;;;;10250391;28;20617;-72
2023/05/19 00:21:16;;;;;;;11.32;5.78;;;;;;;;;;10239559;28;20042;-72
2023/05/19 00:26:12;;;;;;;7.75;4.75;;;;;;;;;;10248674;28;20044;-72
2023/05/19 00:31:08;;;;;;;10.07;6.18;;;;;;;;;;10202102;28;20534;-72
2023/05/19 00:36:05;;;;;;;9.48;5.45;;;;;;;;;;10222305;28;20046;-72
2023/05/19 00:41:02;;;;;;;8.90;5.68;;;;;;;;;;10196195;28;20073;-72
2023/05/19 00:45:59;;;;;;;12.10;5.72;;;;;;;;;;10219539;28;20049;-72
2023/05/19 00:51:00;;;;;;;11.10;5.38;;;;;;;;;;10196719;28;20046;-73
2023/05/19 00:55:57;;;;;;;7.07;4.60;;;;;;;;;;10197230;28;20060;-72
2023/05/19 01:01:01;;;;;;;12.30;5.50;;;;;;;;;;10196081;28;20053;-72
2023/05/19 01:06:00;;;;;;;9.73;5.43;;;;;;;;;;10242017;28;20495;-72
2023/05/19 01:10:56;;;;;;;11.40;5.50;;;;;;;;;;10274932;28;20064;-72
2023/05/19 01:16:02;;;;;;;9.93;5.50;;;;;;;;;;10249386;28;20068;-72
2023/05/19 01:21:09;;;;;;;9.80;5.88;;;;;;;;;;10254765;28;20053;-72
2023/05/19 01:26:14;;;;;;;14.18;6.85;;;;;;;;;;10244214;28;20045;-72
2023/05/19 01:31:11;;;;;;;10.57;5.32;;;;;;;;;;10215727;28;20757;-72
2023/05/19 01:36:10;;;;;;;11.60;5.45;;;;;;;;;;10244587;28;20095;-72
2023/05/19 01:41:07;;;;;;;10.88;5.40;;;;;;;;;;10202069;28;20088;-72
2023/05/19 01:46:04;;;;;;;8.27;5.35;;;;;;;;;;10243158;28;20041;-72
2023/05/19 01:51:00;;;;;;;14.30;6.55;;;;;;;;;;10200145;28;20052;-72
2023/05/19 01:55:58;;;;;;;11.82;7.05;;;;;;;;;;10255331;28;20090;-72
2023/05/19 02:01:00;;;;;;;10.32;6.15;;;;;;;;;;10226526;28;20061;-72
2023/05/19 02:06:02;;;;;;;11.02;5.72;;;;;;;;;;10255394;28;20041;-72
2023/05/19 02:11:06;;;;;;;9.80;6.25;;;;;;;;;;10205086;28;20050;-72
2023/05/19 02:16:04;;;;;;;16.60;6.43;;;;;;;;;;10214331;28;20053;-72
2023/05/19 02:21:00;;;;;;;13.70;5.45;;;;;;;;;;10193680;28;20520;-72
2023/05/19 02:25:57;;;;;;;7.65;5.32;;;;;;;;;;10197119;28;20073;-72
2023/05/19 02:30:53;;;;;;;11.20;5.50;;;;;;;;;;10193221;28;20619;-71
2023/05/19 02:35:52;;;;;;;11.70;5.47;;;;;;;;;;10253358;28;20123;-72
2023/05/19 02:40:50;;;;;;;7.78;5.55;;;;;;;;;;10274729;28;20049;-72
2023/05/19 02:45:48;;;;;;;8.07;5.90;;;;;;;;;;10255965;28;20083;-72
2023/05/19 02:50:45;;;;;;;7.63;5.50;;;;;;;;;;10281971;28;20045;-72
2023/05/19 02:55:41;;;;;;;15.45;6.32;;;;;;;;;;10249309;28;20077;-72
2023/05/19 03:00:37;;;;;;;10.93;5.78;;;;;;;;;;10273919;28;20099;-72
2023/05/19 03:05:33;;;;;;;8.65;5.78;;;;;;;;;;10240704;28;20107;-72
2023/05/19 03:10:30;;;;;;;12.27;6.55;;;;;;;;;;10266087;28;20046;-72
2023/05/19 03:15:26;;;;;;;13.98;6.18;;;;;;;;;;10239054;28;20064;-72
2023/05/19 03:20:23;;;;;;;13.57;6.47;;;;;;;;;;10233738;28;25941;-72
2023/05/19 03:25:19;;;;;;;8.82;5.90;;;;;;;;;;10236098;28;20053;-72
2023/05/19 03:30:16;;;;;;;7.32;6.13;;;;;;;;;;10207911;28;20053;-72
2023/05/19 03:35:12;;;;;;;12.10;6.53;;;;;;;;;;10227736;28;20042;-72
2023/05/19 03:40:09;;;;;;;9.10;6.70;;;;;;;;;;10213928;28;20041;-72
2023/05/19 03:45:06;;;;;;;11.52;6.78;;;;;;;;;;10232283;28;20092;-71
2023/05/19 03:50:02;;;;;;;8.38;6.72;;;;;;;;;;10267281;28;20077;-72
2023/05/19 03:54:58;;;;;;;10.48;6.75;;;;;;;;;;10229444;28;20482;-72
2023/05/19 03:59:55;;;;;;;9.98;7.72;;;;;;;;;;10264644;28;20077;-72
2023/05/19 04:04:51;;;;;;;12.18;7.75;;;;;;;;;;10226965;28;20049;-72
2023/05/19 04:09:48;;;;;;;16.23;7.28;;;;;;;;;;10228936;28;20045;-72
2023/05/19 04:14:44;;;;;;;9.93;7.78;;;;;;;;;;10224867;28;20595;-72
2023/05/19 04:19:41;;;;;;;10.90;6.93;;;;;;;;;;10259439;28;20108;-72
2023/05/19 04:24:37;;;;;;;11.55;7.45;;;;;;;;;;10222284;28;20053;-72
2023/05/19 04:29:34;;;;;;;12.40;7.28;;;;;;;;;;10233604;28;20169;-71
2023/05/19 04:34:30;;;;;;;11.50;7.40;;;;;;;;;;10220403;28;20052;-72
2023/05/19 04:39:27;;;;;;;9.75;6.88;;;;;;;;;;10218355;28;20132;-71
2023/05/19 04:44:23;;;;;;;11.45;6.97;;;;;;;;;;10217682;28;20041;-72
2023/05/19 04:49:19;;;;;;;11.45;7.45;;;;;;;;;;10198414;28;20413;-72
2023/05/19 04:54:15;;;;;;;11.85;7.25;;;;;;;;;;10202776;28;20046;-72
2023/05/19 04:59:12;;;;;;;12.88;7.30;;;;;;;;;;10195387;28;20050;-72
2023/05/19 05:04:08;;;;;;;12.13;8.13;;;;;;;;;;10212443;28;20456;-72
2023/05/19 05:09:04;;;;;;;14.57;7.93;;;;;;;;;;10276068;28;20056;-73
2023/05/19 05:14:01;;;;;;;10.52;7.30;;;;;;;;;;10251189;28;20140;-72
2023/05/19 05:18:57;;;;;;;13.07;7.85;;;;;;;;;;10275310;28;20040;-72
2023/05/19 05:23:54;;;;;;;9.43;7.22;;;;;;;;;;10230821;28;20048;-72
2023/05/19 05:28:50;;;;;;;10.57;7.32;;;;;;;;;;10273084;28;20091;-73
2023/05/19 05:33:47;;;;;;;8.85;7.00;;;;;;;;;;10206183;28;20856;-72
2023/05/19 05:38:43;;;;;;;13.45;7.35;;;;;;;;;;10238134;28;20046;-72
2023/05/19 05:43:39;;;;;;;12.88;7.05;;;;;;;;;;10203929;28;20036;-72
2023/05/19 05:48:36;;;;;;;20.02;8.80;;;;;;;;;;10206885;28;20041;-72
2023/05/19 05:53:35;;;;;;;9.32;6.97;;;;;;;;;;10201620;28;20052;-73
2023/05/19 05:58:33;;;;;;;12.02;6.90;;;;;;;;;;10194496;28;20045;-72
2023/05/19 06:03:30;;;;;;;8.55;7.05;;;;;;;;;;10200796;28;20081;-73
2023/05/19 06:08:27;;;;;;;15.63;7.07;;;;;;;;;;10274016;28;20049;-73
2023/05/19 06:13:24;;;;;;;8.68;6.20;;;;;;;;;;10244316;28;20046;-72
2023/05/19 06:18:21;;;;;;;13.73;7.32;;;;;;;;;;10272634;28;20037;-72
2023/05/19 06:23:17;;;;;;;10.73;6.03;;;;;;;;;;10230944;28;20042;-73
2023/05/19 06:28:13;;;;;;;9.77;5.97;;;;;;;;;;10273423;28;20053;-73
2023/05/19 06:33:10;;;;;;;9.68;5.53;;;;;;;;;;10210708;28;20057;-72
2023/05/19 06:38:06;;;;;;;10.18;5.97;;;;;;;;;;10270340;28;20076;-72
2023/05/19 06:43:03;;;;;;;8.48;5.70;;;;;;;;;;10193475;28;20100;-73
2023/05/19 06:48:00;;;;;;;11.23;6.15;;;;;;;;;;10192117;28;20072;-72
2023/05/19 06:52:57;;;;;;;9.90;6.45;;;;;;;;;;10192597;28;20053;-73
2023/05/19 06:57:53;;;;;;;11.32;5.32;;;;;;;;;;10261794;28;20124;-73
2023/05/19 07:02:50;;;;;;;12.00;5.80;;;;;;;;;;10192649;28;20042;-73
2023/05/19 07:07:46;;;;;;;14.43;6.53;;;;;;;;;;10230764;28;20193;-73
2023/05/19 07:12:42;;;;;;;9.73;6.18;;;;;;;;;;10192755;28;20054;-73
2023/05/19 07:17:39;;;;;;;8.73;5.63;;;;;;;;;;10227882;28;20042;-73
2023/05/19 07:22:35;;;;;;;7.85;5.88;;;;;;;;;;10192130;28;20050;-72
2023/05/19 07:27:32;;;;;;;11.43;6.50;;;;;;;;;;10209802;28;20519;-73
2023/05/19 07:32:28;;;;;;;8.57;6.28;;;;;;;;;;10199295;28;20046;-73
2023/05/19 07:37:25;;;;;;;10.57;5.95;;;;;;;;;;10270175;28;20049;-73
2023/05/19 07:42:21;;;;;;;9.75;6.28;;;;;;;;;;10268087;28;20042;-73
2023/05/19 07:47:20;;;;;;;12.23;6.18;;;;;;;;;;10268607;28;20049;-73
2023/05/19 07:52:17;;;;;;;13.93;6.28;;;;;;;;;;10238775;28;20060;-72
2023/05/19 07:57:13;;;;;;;6.97;6.10;;;;;;;;;;10266267;28;20103;-72
2023/05/19 08:02:09;;;;;;;9.35;6.05;;;;;;;;;;10214556;28;20444;-73
2023/05/19 08:07:06;;;;;;;8.73;6.82;;;;;;;;;;10246117;28;20045;-73
2023/05/19 08:12:03;;;;;;;10.15;6.28;;;;;;;;;;10197777;28;20104;-73
2023/05/19 08:17:00;;;;;;;14.82;6.50;;;;;;;;;;10227048;28;20144;-73
2023/05/19 08:21:57;;;;;;;13.65;6.25;;;;;;;;;;10197781;28;20096;-72
2023/05/19 08:26:53;;;;;;;11.02;6.32;;;;;;;;;;10208687;28;20096;-73
2023/05/19 08:31:49;;;;;;;10.43;5.63;;;;;;;;;;10197246;28;20057;-73
2023/05/19 08:36:47;;;;;;;9.38;6.50;;;;;;;;;;10257131;28;20045;-74
2023/05/19 08:41:43;;;;;;;11.88;6.03;;;;;;;;;;10254822;28;20454;-72
2023/05/19 08:46:40;;;;;;;8.48;5.60;;;;;;;;;;10255150;28;20094;-72
2023/05/19 08:51:56;;;;;;;7.25;5.43;;;;;;;;;;10249081;28;20530;-73
2023/05/19 08:56:53;;;;;;;8.02;5.75;;;;;;;;;;10237518;28;20076;-72
2023/05/19 09:01:49;;;;;;;10.27;6.05;;;;;;;;;;10226630;28;20046;-72
2023/05/19 09:06:47;;;;;;;12.10;6.25;;;;;;;;;;10255963;28;20049;-72
2023/05/19 09:11:46;;;;;;;9.75;5.60;;;;;;;;;;10199027;28;20045;-73
2023/05/19 09:16:44;;;;;;;8.45;6.35;;;;;;;;;;10252341;28;20045;-72
2023/05/19 09:21:40;;;;;;;8.27;5.80;;;;;;;;;;10194977;28;20084;-73
2023/05/19 09:26:38;;;;;;;9.48;5.65;;;;;;;;;;10216265;28;20048;-73
2023/05/19 09:31:35;;;;;;;10.65;5.93;;;;;;;;;;10194882;28;20100;-73
2023/05/19 09:36:31;;;;;;;9.98;5.85;;;;;;;;;;10250851;28;20048;-72
2023/05/19 09:41:27;;;;;;;8.57;5.72;;;;;;;;;;10275541;28;20045;-73
2023/05/19 09:46:27;;;;;;;8.88;5.30;;;;;;;;;;10250896;28;20049;-73
2023/05/19 09:51:24;;;;;;;8.73;5.90;;;;;;;;;;10249802;28;20053;-73
2023/05/19 09:56:22;;;;;;;8.45;6.50;;;;;;;;;;10247147;28;20600;-73
2023/05/19 10:01:19;;;;;;;9.18;6.57;;;;;;;;;;10246180;28;20096;-73
2023/05/19 10:06:15;;;;;;;7.70;5.13;;;;;;;;;;10245905;28;20049;-73
2023/05/19 10:11:12;;;;;;;8.85;6.15;;;;;;;;;;10231765;28;20046;-73
2023/05/19 10:16:12;;;;;;;8.05;6.07;;;;;;;;;;10243488;28;20083;-73
2023/05/19 10:21:09;;;;;;;8.23;6.38;;;;;;;;;;10221193;28;20049;-73
2023/05/19 10:26:06;;;;;;;9.23;5.85;;;;;;;;;;10242248;28;20578;-74
2023/05/19 10:31:05;;;;;;;8.40;6.72;;;;;;;;;;10237004;28;20497;-73
2023/05/19 10:36:14;;;;;;;7.10;6.25;;;;;;;;;;10256995;28;20045;-73
2023/05/19 10:41:29;;;;;;;9.50;6.82;;;;;;;;;;10210264;28;20050;-73
2023/05/19 10:46:28;;;;;;;9.82;6.35;;;;;;;;;;10233287;28;20500;-73
2023/05/19 10:51:30;;;;;;;6.57;5.75;;;;;;;;;;10193431;28;20148;-73
2023/05/19 10:56:32;;;;;;;9.45;6.20;;;;;;;;;;10210501;28;20050;-73
2023/05/19 11:01:30;;;;;;;11.25;7.25;;;;;;;;;;10192889;28;20115;-73
2023/05/19 11:06:34;;;;;;;9.40;6.32;;;;;;;;;;10211568;28;20054;-73
2023/05/19 11:11:51;;;;;;;8.35;6.95;;;;;;;;;;10200059;28;20427;-73
2023/05/19 11:16:48;;;;;;;8.43;6.45;;;;;;;;;;10260697;28;20606;-73
2023/05/19 11:21:51;;;;;;;8.02;5.72;;;;;;;;;;10260103;28;20041;-74
2023/05/19 11:26:47;;;;;;;8.15;6.28;;;;;;;;;;10260296;28;20411;-73
2023/05/19 11:31:43;;;;;;;9.85;6.13;;;;;;;;;;10249435;28;20534;-73
2023/05/19 11:36:40;;;;;;;8.30;5.85;;;;;;;;;;10258316;28;20049;-73
2023/05/19 11:41:39;;;;;;;7.25;5.30;;;;;;;;;;10228577;28;20042;-73
2023/05/19 11:46:36;;;;;;;6.72;5.38;;;;;;;;;;10256750;28;20102;-73
2023/05/19 11:51:35;;;;;;;7.22;5.22;;;;;;;;;;10225621;28;20041;-73
2023/05/19 11:56:32;;;;;;;7.15;5.70;;;;;;;;;;10254942;28;20268;-73
2023/05/19 12:01:30;;;;;;;8.10;5.75;;;;;;;;;;10213604;28;20053;-73
2023/05/19 12:06:27;;;;;;;6.63;5.68;;;;;;;;;;10230833;28;20054;-73
2023/05/19 12:11:24;;;;;;;9.48;6.15;;;;;;;;;;10213526;28;20073;-74
2023/05/19 12:16:20;;;;;;;8.25;5.72;;;;;;;;;;10225960;28;20050;-73
2023/05/19 12:21:16;;;;;;;9.50;5.72;;;;;;;;;;10197720;28;20073;-73
2023/05/19 12:26:13;;;;;;;6.63;5.78;;;;;;;;;;10214930;28;20053;-73
2023/05/19 12:31:10;;;;;;;11.63;5.93;;;;;;;;;;10197013;28;20050;-73
2023/05/19 12:36:07;;;;;;;8.30;5.68;;;;;;;;;;10246604;28;20530;-73
2023/05/19 12:41:05;;;;;;;7.40;5.38;;;;;;;;;;10277865;28;20499;-73
2023/05/19 12:46:19;;;;;;;7.50;6.10;;;;;;;;;;10264548;28;20064;-73
2023/05/19 12:51:19;;;;;;;7.68;5.72;;;;;;;;;;10267434;28;20041;-73
2023/05/19 12:56:16;;;;;;;8.88;6.05;;;;;;;;;;10248419;28;20049;-73
2023/05/19 13:01:16;;;;;;;7.47;6.00;;;;;;;;;;10237478;28;20097;-73
2023/05/19 13:06:13;;;;;;;7.82;6.35;;;;;;;;;;10246565;28;20060;-73
2023/05/19 13:11:09;;;;;;;7.45;5.80;;;;;;;;;;10216436;28;20511;-73
2023/05/19 13:16:05;;;;;;;9.70;5.60;;;;;;;;;;10227509;28;20049;-73
2023/05/19 13:21:02;;;;;;;7.93;5.78;;;;;;;;;;10195611;28;20060;-73
2023/05/19 13:25:59;;;;;;;8.93;6.00;;;;;;;;;;10231280;28;20470;-73
2023/05/19 13:30:55;;;;;;;6.65;5.65;;;;;;;;;;10195284;28;20049;-73
2023/05/19 13:35:52;;;;;;;9.45;6.20;;;;;;;;;;10240266;28;20445;-73
2023/05/19 13:40:48;;;;;;;8.02;5.95;;;;;;;;;;10275140;28;20119;-74
2023/05/19 13:45:44;;;;;;;6.70;5.68;;;;;;;;;;10252585;28;20045;-73
2023/05/19 13:50:41;;;;;;;7.00;5.65;;;;;;;;;;10251843;28;20065;-73
2023/05/19 13:55:37;;;;;;;7.18;5.88;;;;;;;;;;10251362;28;20098;-74
2023/05/19 14:00:34;;;;;;;8.00;5.35;;;;;;;;;;10220443;28;20631;-73
2023/05/19 14:05:31;;;;;;;7.03;5.18;;;;;;;;;;10234010;28;20132;-73
2023/05/19 14:10:28;;;;;;;7.18;5.68;;;;;;;;;;10196044;28;20061;-73
2023/05/19 14:15:25;;;;;;;7.65;6.63;;;;;;;;;;10201574;28;20446;-73
2023/05/19 14:20:21;;;;;;;8.60;5.60;;;;;;;;;;10193590;28;20472;-73
2023/05/19 14:25:18;;;;;;;8.35;6.10;;;;;;;;;;10229837;28;20285;-73
2023/05/19 14:30:14;;;;;;;7.07;5.75;;;;;;;;;;10274157;28;20077;-73
2023/05/19 14:35:10;;;;;;;6.30;5.63;;;;;;;;;;10231760;28;20546;-73
2023/05/19 14:40:07;;;;;;;6.35;5.57;;;;;;;;;;10277301;28;20444;-73
2023/05/19 14:45:03;;;;;;;7.22;5.95;;;;;;;;;;10233323;28;20419;-74
2023/05/19 14:50:00;;;;;;;7.13;5.68;;;;;;;;;;10263861;28;20085;-73
2023/05/19 14:54:56;;;;;;;10.00;5.68;;;;;;;;;;10230883;28;20099;-73
2023/05/19 14:59:52;;;;;;;6.97;5.68;;;;;;;;;;10255109;28;20042;-73
2023/05/19 15:04:49;;;;;;;6.38;5.57;;;;;;;;;;10228605;28;20045;-73
2023/05/19 15:09:45;;;;;;;7.85;5.15;;;;;;;;;;10220200;28;20049;-73
2023/05/19 15:14:41;;;;;;;6.32;5.68;;;;;;;;;;10211581;28;20096;-73
2023/05/19 15:19:40;;;;;;;6.43;5.70;;;;;;;;;;10199679;28;20053;-72
2023/05/19 15:24:37;;;;;;;6.90;5.57;;;;;;;;;;10224386;28;20045;-72
2023/05/19 15:29:34;;;;;;;6.50;5.75;;;;;;;;;;10280169;28;20578;-72
2023/05/19 15:34:31;;;;;;;6.32;5.18;;;;;;;;;;10269095;28;20051;-73
2023/05/19 15:39:28;;;;;;;8.15;5.50;;;;;;;;;;10279854;28;20041;-73
2023/05/19 15:44:24;;;;;;;6.13;4.80;;;;;;;;;;10249964;28;20052;-72
2023/05/19 15:49:24;;;;;;;5.68;4.95;;;;;;;;;;10279151;28;20507;-72
2023/05/19 15:54:20;;;;;;;7.57;5.45;;;;;;;;;;10219257;28;20064;-72
2023/05/19 15:59:16;;;;;;;7.90;5.10;;;;;;;;;;10279019;28;20052;-73
2023/05/19 16:04:16;;;;;;;5.75;5.15;;;;;;;;;;10217295;28;20071;-72
2023/05/19 16:09:13;;;;;;;5.80;4.95;;;;;;;;;;10253611;28;20115;-72
2023/05/19 16:14:09;;;;;;;10.27;5.88;;;;;;;;;;10215403;28;20053;-74
2023/05/19 16:19:05;;;;;;;5.93;5.32;;;;;;;;;;10229515;28;20680;-73
2023/05/19 16:24:02;;;;;;;6.22;5.30;;;;;;;;;;10213380;28;20123;-73
2023/05/19 16:28:58;;;;;;;8.95;5.45;;;;;;;;;;10213265;28;20054;-73
2023/05/19 16:33:54;;;;;;;12.95;5.35;;;;;;;;;;10208823;28;20045;-73
2023/05/19 16:38:52;;;;;;;6.47;5.45;;;;;;;;;;10196404;28;20115;-74
2023/05/19 16:43:48;;;;;;;11.98;5.28;;;;;;;;;;10208406;28;20091;-73
2023/05/19 16:48:44;;;;;;;8.30;5.30;;;;;;;;;;10276829;28;20526;-73
2023/05/19 16:53:41;;;;;;;7.03;5.40;;;;;;;;;;10225939;28;20052;-73
2023/05/19 16:58:40;;;;;;;5.65;5.07;;;;;;;;;;10276283;28;20045;-73
2023/05/19 17:03:36;;;;;;;6.93;4.85;;;;;;;;;;10204311;28;20065;-73
2023/05/19 17:08:32;;;;;;;5.70;4.78;;;;;;;;;;10260731;28;20095;-73
2023/05/19 17:13:32;;;;;;;5.97;4.57;;;;;;;;;;10202539;28;20517;-73
2023/05/19 17:18:30;;;;;;;6.32;5.07;;;;;;;;;;10251251;28;20046;-73
2023/05/19 17:23:29;;;;;;;10.05;5.10;;;;;;;;;;10201217;28;20542;-73
2023/05/19 17:28:25;;;;;;;6.55;4.82;;;;;;;;;;10228117;28;20409;-73
2023/05/19 17:33:22;;;;;;;9.95;5.32;;;;;;;;;;10196262;28;20042;-72
2023/05/19 17:38:18;;;;;;;9.60;5.07;;;;;;;;;;10194536;28;20082;-72
2023/05/19 17:43:14;;;;;;;6.57;5.15;;;;;;;;;;10197575;28;20134;-72
2023/05/19 17:48:10;;;;;;;5.85;4.43;;;;;;;;;;10274713;28;20548;-73
2023/05/19 17:53:07;;;;;;;5.15;4.65;;;;;;;;;;10201591;28;20643;-73
2023/05/19 17:58:04;;;;;;;5.15;4.65;;;;;;;;;;10264255;28;20739;-73
2023/05/19 18:03:03;;;;;;;6.68;4.80;;;;;;;;;;10193894;28;20129;-73
2023/05/19 18:08:03;;;;;;;7.80;4.60;;;;;;;;;;10193414;28;20046;-72
2023/05/19 18:13:03;;;;;;;7.13;4.68;;;;;;;;;;10193516;28;20058;-73
2023/05/19 18:17:59;;;;;;;8.63;5.05;;;;;;;;;;10193251;28;20050;-73
2023/05/19 18:22:56;;;;;;;7.07;4.65;;;;;;;;;;10193113;28;20050;-72
2023/05/19 18:27:54;;;;;;;5.32;4.20;;;;;;;;;;10208191;28;20100;-72
2023/05/19 18:32:51;;;;;;;6.07;4.60;;;;;;;;;;10193052;28;20041;-72
2023/05/19 18:37:47;;;;;;;6.97;4.22;;;;;;;;;;10270180;28;20049;-72
2023/05/19 18:42:43;;;;;;;7.00;3.88;;;;;;;;;;10250986;28;20060;-72
2023/05/19 18:47:40;;;;;;;7.60;3.97;;;;;;;;;;10267770;28;20103;-72
2023/05/19 18:52:36;;;;;;;8.73;4.22;;;;;;;;;;10234538;28;20050;-72
2023/05/19 18:57:32;;;;;;;5.07;4.22;;;;;;;;;;10265476;28;20091;-72
2023/05/19 19:02:28;;;;;;;5.78;4.05;;;;;;;;;;10200514;28;20512;-72
2023/05/19 19:07:26;;;;;;;5.80;3.90;;;;;;;;;;10232214;28;20046;-72
2023/05/19 19:12:22;;;;;;;5.50;4.50;;;;;;;;;;10192836;28;20049;-72
2023/05/19 19:17:19;;;;;;;4.30;3.90;;;;;;;;;;10208794;28;20503;-72
2023/05/19 19:22:15;;;;;;;5.90;4.00;;;;;;;;;;10192256;28;20054;-73
2023/05/19 19:27:19;;;;;;;4.70;4.20;;;;;;;;;;10267272;28;20072;-72
2023/05/19 19:32:16;;;;;;;4.97;4.15;;;;;;;;;;10241569;28;20053;-72
2023/05/19 19:37:13;;;;;;;6.65;3.90;;;;;;;;;;10266887;28;20526;-72
2023/05/19 19:42:09;;;;;;;6.15;4.03;;;;;;;;;;10218892;28;20050;-72
2023/05/19 19:47:06;;;;;;;4.95;4.45;;;;;;;;;;10264601;28;20506;-72
2023/05/19 19:52:02;;;;;;;8.07;4.30;;;;;;;;;;10214596;28;20049;-72
2023/05/19 19:56:58;;;;;;;8.02;5.30;;;;;;;;;;10253189;28;20522;-73
2023/05/19 20:01:54;;;;;;;5.78;4.40;;;;;;;;;;10198488;28;20081;-72
2023/05/19 20:06:51;;;;;;;5.32;4.82;;;;;;;;;;10250581;28;20049;-72
2023/05/19 20:11:47;;;;;;;5.88;4.75;;;;;;;;;;10197768;28;20065;-72
2023/05/19 20:16:44;;;;;;;7.80;4.70;;;;;;;;;;10219807;28;20115;-72
2023/05/19 20:21:40;;;;;;;8.18;4.70;;;;;;;;;;10197634;28;20073;-73
2023/05/19 20:26:37;;;;;;;11.65;4.88;;;;;;;;;;10218032;28;20050;-72
2023/05/19 20:31:33;;;;;;;6.25;4.43;;;;;;;;;;10197146;28;20500;-72
2023/05/19 20:36:29;;;;;;;5.03;4.53;;;;;;;;;;10261669;28;20045;-72
2023/05/19 20:41:26;;;;;;;8.60;4.72;;;;;;;;;;10277754;28;20721;-72
2023/05/19 20:46:23;;;;;;;6.10;4.43;;;;;;;;;;10272717;28;20480;-72
2023/05/19 20:51:20;;;;;;;6.15;4.40;;;;;;;;;;10274834;28;20095;-72
2023/05/19 20:56:17;;;;;;;5.97;4.15;;;;;;;;;;10248766;28;20057;-72
2023/05/19 21:01:14;;;;;;;6.35;4.38;;;;;;;;;;10247292;28;20467;-72
2023/05/19 21:06:10;;;;;;;6.53;4.38;;;;;;;;;;10246518;28;20055;-72
2023/05/19 21:11:06;;;;;;;6.05;4.13;;;;;;;;;;10242762;28;20057;-72
2023/05/19 21:16:02;;;;;;;5.28;3.90;;;;;;;;;;10243887;28;20048;-72
2023/05/19 21:21:02;;;;;;;5.97;4.05;;;;;;;;;;10230605;28;20058;-72
2023/05/19 21:25:59;;;;;;;5.22;4.32;;;;;;;;;;10242208;28;20044;-72
2023/05/19 21:30:55;;;;;;;5.60;4.22;;;;;;;;;;10217783;28;20104;-72
2023/05/19 21:35:51;;;;;;;4.72;4.22;;;;;;;;;;10240371;28;20049;-72
2023/05/19 21:40:48;;;;;;;5.82;4.30;;;;;;;;;;10194318;28;20046;-72
2023/05/19 21:45:44;;;;;;;5.40;4.22;;;;;;;;;;10208808;28;20160;-72
2023/05/19 21:50:40;;;;;;;6.30;4.03;;;;;;;;;;10193891;28;20046;-72
2023/05/19 21:55:38;;;;;;;5.88;3.80;;;;;;;;;;10235388;28;20056;-72
2023/05/19 22:00:35;;;;;;;4.80;3.90;;;;;;;;;;10274155;28;20041;-72
2023/05/19 22:05:33;;;;;;;5.65;3.83;;;;;;;;;;10235105;28;20502;-71
2023/05/19 22:10:30;;;;;;;7.43;3.88;;;;;;;;;;10273899;28;20059;-71
2023/05/19 22:15:27;;;;;;;4.38;3.55;;;;;;;;;;10232428;28;20049;-71
2023/05/19 22:20:23;;;;;;;4.18;3.53;;;;;;;;;;10243568;28;20543;-71
2023/05/19 22:25:19;;;;;;;4.55;3.80;;;;;;;;;;10229489;28;20049;-71
2023/05/19 22:30:16;;;;;;;5.88;3.70;;;;;;;;;;10227274;28;20042;-71
2023/05/19 22:35:12;;;;;;;4.00;3.60;;;;;;;;;;10243008;28;20049;-73
2023/05/19 22:40:08;;;;;;;3.70;3.28;;;;;;;;;;10196385;28;20041;-73
2023/05/19 22:45:05;;;;;;;4.00;3.60;;;;;;;;;;10192535;28;20050;-71
2023/05/19 22:50:02;;;;;;;3.78;3.15;;;;;;;;;;10192948;28;20068;-73
2023/05/19 22:54:58;;;;;;;3.75;3.28;;;;;;;;;;10223579;28;20049;-73
2023/05/19 22:59:54;;;;;;;4.95;3.10;;;;;;;;;;10277536;28;20120;-73
2023/05/19 23:04:51;;;;;;;6.28;3.35;;;;;;;;;;10254161;28;20465;-72
2023/05/19 23:09:47;;;;;;;4.03;3.10;;;;;;;;;;10280777;28;20061;-73
2023/05/19 23:14:43;;;;;;;4.10;3.30;;;;;;;;;;10234131;28;20691;-73
2023/05/19 23:19:40;;;;;;;8.05;3.40;;;;;;;;;;10250997;28;20041;-72
2023/05/19 23:24:36;;;;;;;4.45;3.20;;;;;;;;;;10239375;28;20069;-73
2023/05/19 23:29:32;;;;;;;3.60;3.05;;;;;;;;;;10233675;28;20112;-73
2023/05/19 23:34:28;;;;;;;3.67;3.28;;;;;;;;;;10221874;28;20044;-72
2023/05/19 23:39:25;;;;;;;3.80;3.20;;;;;;;;;;10231756;28;20444;-73
2023/05/19 23:44:21;;;;;;;4.50;3.60;;;;;;;;;;10219740;28;20045;-73
2023/05/19 23:49:18;;;;;;;4.68;3.20;;;;;;;;;;10222118;28;20046;-72
2023/05/19 23:54:15;;;;;;;3.80;3.10;;;;;;;;;;10226285;28;20049;-73
2023/05/19 23:59:11;;;;;;;4.55;3.13;;;;;;;;;;10198002;28;20042;-72
